Time;durP1;ratioP1;P1;durP2;ratioP2;P2;SDS_P1;SDS_P2;PMS_P1;PMS_P2;Temp;Humidity;BMP_temperature;BMP_pressure;BME280_temperature;BME280_humidity;BME280_pressure;Samples;Min_cycle;Max_cycle;Signal;HPM_P1;HPM_P2
2023/12/09 00:00:47;;;;;;;14.98;4.57;;;;;;;5.42;100.00;100988.31;5008511;28;20020;-90
2023/12/09 00:03:13;;;;;;;10.63;4.82;;;;;;;5.44;100.00;100988.31;5027732;28;20432;-89
2023/12/09 00:05:38;;;;;;;16.60;4.72;;;;;;;5.46;100.00;100991.75;4999074;28;20041;-88
2023/12/09 00:08:04;;;;;;;17.58;5.60;;;;;;;5.47;100.00;100977.97;5023179;28;20021;-88
2023/12/09 00:10:29;;;;;;;15.77;5.00;;;;;;;5.48;100.00;100979.69;4999114;28;20026;-89
2023/12/09 00:12:54;;;;;;;12.68;4.80;;;;;;;5.47;100.00;100978.84;5023879;28;20472;-90
2023/12/09 00:15:20;;;;;;;13.95;4.53;;;;;;;5.47;100.00;100981.41;5006053;28;20392;-89
2023/12/09 00:17:46;;;;;;;14.43;5.00;;;;;;;5.45;100.00;100977.13;5006908;28;20029;-88
2023/12/09 00:20:12;;;;;;;11.55;4.47;;;;;;;5.45;100.00;100979.72;5019799;28;20235;-88
2023/12/09 00:22:38;;;;;;;17.05;5.30;;;;;;;5.46;100.00;100977.13;5001374;28;20696;-88
2023/12/09 00:25:05;;;;;;;12.32;4.40;;;;;;;5.45;100.00;100977.13;5021342;28;20032;-88
2023/12/09 00:27:31;;;;;;;13.25;4.78;;;;;;;5.44;100.00;100972.84;5010356;28;20026;-88
2023/12/09 00:29:56;;;;;;;23.30;6.40;;;;;;;5.44;100.00;100984.00;5006247;28;20025;-89
2023/12/09 00:32:22;;;;;;;19.13;5.00;;;;;;;5.45;100.00;100982.28;5024297;28;20029;-88
2023/12/09 00:34:47;;;;;;;12.52;4.72;;;;;;;5.45;100.00;100990.03;5017014;28;20037;-86
2023/12/09 00:37:12;;;;;;;15.88;4.70;;;;;;;5.43;100.00;100990.03;5019225;28;20076;-87
2023/12/09 00:39:38;;;;;;;17.08;4.80;;;;;;;5.44;100.00;100993.47;5022366;28;20018;-87
2023/12/09 00:42:04;;;;;;;12.85;4.85;;;;;;;5.43;100.00;100982.28;5022858;28;20445;-87
2023/12/09 00:44:29;;;;;;;14.18;4.43;;;;;;;5.44;100.00;100986.59;5018856;28;20038;-86
2023/12/09 00:46:54;;;;;;;17.35;4.57;;;;;;;5.41;100.00;100976.25;5019696;28;20049;-87
2023/12/09 00:49:20;;;;;;;14.45;4.38;;;;;;;5.41;100.00;100984.00;5021466;28;20073;-86
2023/12/09 00:51:45;;;;;;;14.80;5.10;;;;;;;5.41;100.00;100984.00;5001883;28;20075;-87
2023/12/09 00:54:10;;;;;;;13.07;5.15;;;;;;;5.43;100.00;100986.59;5023169;28;20030;-86
2023/12/09 00:56:36;;;;;;;13.43;4.47;;;;;;;5.41;100.00;100988.31;5015953;28;20026;-87
2023/12/09 00:59:02;;;;;;;18.15;4.97;;;;;;;5.40;100.00;100978.84;5021236;28;20064;-87
2023/12/09 01:01:27;;;;;;;14.32;4.80;;;;;;;5.38;100.00;100983.16;5021157;28;20044;-87
2023/12/09 01:03:53;;;;;;;13.07;4.50;;;;;;;5.39;100.00;100984.88;5005511;28;20029;-86
2023/12/09 01:06:18;;;;;;;13.48;4.72;;;;;;;5.38;100.00;100978.84;4993572;28;20050;-87
2023/12/09 01:08:44;;;;;;;11.73;4.38;;;;;;;5.38;100.00;100978.00;5012088;28;20030;-86
2023/12/09 01:11:09;;;;;;;15.02;4.85;;;;;;;5.40;100.00;100976.28;5019505;28;20055;-86
2023/12/09 01:13:34;;;;;;;17.60;4.82;;;;;;;5.39;100.00;100971.97;4996390;28;20036;-87
2023/12/09 01:16:00;;;;;;;13.40;4.70;;;;;;;5.38;100.00;100973.69;4997566;28;20168;-87
2023/12/09 01:18:25;;;;;;;12.57;4.18;;;;;;;5.37;100.00;100984.00;5016376;28;20034;-87
2023/12/09 01:20:50;;;;;;;19.65;6.53;;;;;;;5.34;100.00;100981.44;5000831;28;20092;-87
2023/12/09 01:23:16;;;;;;;13.30;4.32;;;;;;;5.32;100.00;100968.56;5021495;28;20472;-87
2023/12/09 01:25:41;;;;;;;12.05;4.60;;;;;;;5.29;100.00;100969.44;5021033;28;20083;-87
2023/12/09 01:28:06;;;;;;;12.80;4.30;;;;;;;5.29;100.00;100968.56;5022078;28;20105;-87
2023/12/09 01:30:32;;;;;;;11.52;3.97;;;;;;;5.27;100.00;100978.88;5030106;28;20379;-85
2023/12/09 01:32:57;;;;;;;13.95;4.75;;;;;;;5.26;100.00;100979.75;5029036;28;20499;-85
2023/12/09 01:35:23;;;;;;;14.38;4.40;;;;;;;5.23;100.00;100979.75;5021443;28;20029;-85
2023/12/09 01:37:48;;;;;;;15.27;4.70;;;;;;;5.21;100.00;100981.47;5024308;28;20025;-85
2023/12/09 01:40:14;;;;;;;12.00;4.18;;;;;;;5.22;100.00;100978.03;5005227;28;20022;-85
2023/12/09 01:42:42;;;;;;;17.50;4.70;;;;;;;5.20;100.00;100974.59;5019759;28;20022;-85
2023/12/09 01:45:09;;;;;;;13.73;4.43;;;;;;;5.19;100.00;100974.59;5023709;28;20037;-85
2023/12/09 01:47:35;;;;;;;14.60;4.47;;;;;;;5.18;100.00;100975.47;5022373;28;20477;-85
2023/12/09 01:50:03;;;;;;;14.85;4.50;;;;;;;5.16;100.00;100976.31;5023742;28;20056;-85
2023/12/09 01:52:30;;;;;;;15.53;4.57;;;;;;;5.15;100.00;100981.47;5007687;28;20421;-85
2023/12/09 01:54:56;;;;;;;13.63;4.33;;;;;;;5.15;100.00;100971.16;5024192;28;20022;-85
2023/12/09 01:57:21;;;;;;;12.48;4.45;;;;;;;5.13;100.00;100963.41;5021323;28;20486;-85
2023/12/09 01:59:47;;;;;;;10.98;4.00;;;;;;;5.13;100.00;100959.97;5017628;28;20033;-85
2023/12/09 02:02:12;;;;;;;13.30;4.30;;;;;;;5.13;100.00;100947.06;5021937;28;20031;-85
2023/12/09 02:04:39;;;;;;;15.18;5.15;;;;;;;5.16;100.00;100941.91;5032151;28;20021;-88
2023/12/09 02:07:04;;;;;;;17.17;4.07;;;;;;;5.16;100.00;100947.06;5026842;28;20053;-85
2023/12/09 02:09:31;;;;;;;13.65;4.28;;;;;;;5.15;100.00;100940.19;5021040;28;20029;-85
2023/12/09 02:12:39;;;;;;;10.95;4.35;;;;;;;5.16;100.00;100939.34;5010177;28;20042;-86
2023/12/09 02:15:12;;;;;;;15.47;4.60;;;;;;;5.16;100.00;100944.50;5021319;28;20523;-85
2023/12/09 02:18:01;;;;;;;14.55;4.50;;;;;;;5.14;100.00;100939.34;5024565;28;20112;-86
2023/12/09 02:20:28;;;;;;;13.63;3.90;;;;;;;5.12;100.00;100935.91;5017341;28;20113;-87
2023/12/09 02:23:06;;;;;;;10.77;3.90;;;;;;;5.12;100.00;100935.06;5024339;28;20033;-86
2023/12/09 02:25:33;;;;;;;14.60;4.23;;;;;;;5.12;100.00;100935.06;5025577;28;20068;-87
2023/12/09 02:28:04;;;;;;;14.68;4.07;;;;;;;5.15;100.00;100942.78;5017717;28;20101;-85
2023/12/09 02:31:03;;;;;;;12.90;4.10;;;;;;;5.13;100.00;100936.75;5022824;28;20030;-85
2023/12/09 02:33:30;;;;;;;12.52;4.00;;;;;;;5.11;100.00;100930.78;5008253;28;20037;-85
2023/12/09 02:35:58;;;;;;;13.45;4.32;;;;;;;5.08;100.00;100933.34;5008264;28;20476;-85
2023/12/09 02:38:24;;;;;;;15.25;4.53;;;;;;;5.07;100.00;100934.22;5020091;28;20034;-85
2023/12/09 02:40:50;;;;;;;10.93;3.70;;;;;;;5.04;100.00;100927.31;5019527;28;20036;-84
2023/12/09 02:43:16;;;;;;;12.00;3.90;;;;;;;5.01;100.00;100923.03;5018662;28;20066;-85
2023/12/09 02:45:45;;;;;;;14.50;4.38;;;;;;;4.99;100.00;100924.75;5025032;28;20040;-85
2023/12/09 02:48:11;;;;;;;14.68;3.90;;;;;;;4.98;100.00;100912.72;5022714;28;20034;-85
2023/12/09 02:50:36;;;;;;;13.00;4.27;;;;;;;4.96;100.00;100909.28;5021786;28;20026;-85
2023/12/09 02:53:02;;;;;;;11.68;3.90;;;;;;;4.96;100.00;100901.53;5019164;28;20393;-85
2023/12/09 02:55:27;;;;;;;13.32;4.13;;;;;;;4.94;100.00;100897.25;5021882;28;20022;-85
2023/12/09 02:57:53;;;;;;;13.57;4.30;;;;;;;4.93;100.00;100899.00;5023816;28;20044;-85
2023/12/09 03:00:18;;;;;;;15.27;4.03;;;;;;;4.92;100.00;100901.56;5019780;28;20037;-84
2023/12/09 03:02:43;;;;;;;13.23;4.70;;;;;;;4.94;100.00;100905.00;5019560;28;20033;-84
2023/12/09 03:05:09;;;;;;;13.13;4.27;;;;;;;4.94;100.00;100894.69;5022384;28;20493;-85
2023/12/09 03:07:34;;;;;;;14.40;4.20;;;;;;;4.96;100.00;100905.84;5020226;28;20144;-85
2023/12/09 03:09:59;;;;;;;13.05;3.63;;;;;;;4.96;100.00;100891.22;5019916;28;20109;-85
2023/12/09 03:12:25;;;;;;;11.53;3.73;;;;;;;4.95;100.00;100891.25;5007817;28;20065;-85
2023/12/09 03:14:50;;;;;;;12.57;3.90;;;;;;;4.93;100.00;100888.69;5020687;28;20545;-85
2023/12/09 03:17:15;;;;;;;11.27;4.07;;;;;;;4.92;100.00;100881.81;5025050;28;20516;-85
2023/12/09 03:19:41;;;;;;;15.77;4.10;;;;;;;4.91;100.00;100884.38;5030728;28;20025;-85
2023/12/09 03:22:06;;;;;;;13.10;4.23;;;;;;;4.87;100.00;100868.06;5022329;28;20034;-85
2023/12/09 03:24:32;;;;;;;14.17;4.13;;;;;;;4.88;100.00;100900.72;5022516;28;20464;-85
2023/12/09 03:26:57;;;;;;;15.52;3.95;;;;;;;4.87;100.00;100860.31;5022936;28;20053;-85
2023/12/09 03:29:22;;;;;;;12.33;4.40;;;;;;;4.88;100.00;100905.88;5024322;28;20041;-85
2023/12/09 03:31:48;;;;;;;13.52;4.30;;;;;;;4.88;100.00;100858.59;5021792;28;20038;-85
2023/12/09 03:34:14;;;;;;;17.00;5.00;;;;;;;4.87;100.00;100901.56;5004693;28;20037;-85
2023/12/09 03:36:39;;;;;;;17.47;4.40;;;;;;;4.88;100.00;100863.75;5025661;28;20022;-85
2023/12/09 03:39:06;;;;;;;15.47;4.70;;;;;;;4.88;100.00;100898.13;5025558;28;20172;-85
2023/12/09 03:41:32;;;;;;;18.40;4.60;;;;;;;4.91;100.00;100876.63;5025428;28;20029;-85
2023/12/09 03:43:57;;;;;;;13.13;4.07;;;;;;;4.90;100.00;100873.22;5023623;28;20040;-84
2023/12/09 03:46:23;;;;;;;11.17;3.77;;;;;;;4.92;100.00;100861.19;5020145;28;20037;-84
2023/12/09 03:48:48;;;;;;;12.27;4.30;;;;;;;4.92;100.00;100876.66;5024932;28;20033;-84
2023/12/09 03:51:13;;;;;;;15.23;4.63;;;;;;;4.96;100.00;100877.50;5018162;28;20136;-85
2023/12/09 03:53:41;;;;;;;9.93;3.80;;;;;;;4.95;100.00;100871.47;5026741;28;20112;-85
2023/12/09 03:56:06;;;;;;;13.85;4.55;;;;;;;4.94;100.00;100859.47;5017913;28;20034;-85
2023/12/09 03:58:32;;;;;;;11.55;3.85;;;;;;;4.91;100.00;100869.78;5026450;28;20538;-84
2023/12/09 04:00:57;;;;;;;12.57;3.72;;;;;;;4.93;100.00;100860.31;5017890;28;20032;-85
2023/12/09 04:03:23;;;;;;;15.50;4.22;;;;;;;4.92;100.00;100850.00;5022111;28;20420;-85
2023/12/09 04:05:48;;;;;;;13.17;4.40;;;;;;;4.91;100.00;100849.16;5024080;28;20053;-85
2023/12/09 04:08:13;;;;;;;13.83;4.30;;;;;;;4.91;100.00;100840.53;5017498;28;20068;-84
2023/12/09 04:10:38;;;;;;;14.37;4.70;;;;;;;4.89;100.00;100831.94;5022590;28;20033;-85
2023/12/09 04:13:04;;;;;;;16.43;4.50;;;;;;;4.88;100.00;100833.69;5020739;28;20091;-85
2023/12/09 04:15:30;;;;;;;15.02;4.28;;;;;;;4.88;100.00;100831.13;5021617;28;20025;-85
2023/12/09 04:17:55;;;;;;;12.85;3.80;;;;;;;4.87;100.00;100826.81;5025633;28;20029;-85
2023/12/09 04:20:20;;;;;;;12.05;3.58;;;;;;;4.85;100.00;100825.97;5027151;28;20029;-85
2023/12/09 04:22:47;;;;;;;12.90;3.93;;;;;;;4.84;100.00;100830.28;5020781;28;20034;-85
2023/12/09 04:25:12;;;;;;;13.07;4.80;;;;;;;4.82;100.00;100829.41;5008665;28;20040;-85
2023/12/09 04:27:39;;;;;;;14.43;4.57;;;;;;;4.83;100.00;100833.72;5023988;28;20030;-85
2023/12/09 04:30:05;;;;;;;14.47;4.60;;;;;;;4.81;100.00;100832.84;5022058;28;20037;-85
2023/12/09 04:32:31;;;;;;;13.07;4.10;;;;;;;4.81;100.00;100826.81;5020361;28;20037;-85
2023/12/09 04:34:58;;;;;;;12.25;4.03;;;;;;;4.77;100.00;100825.13;5024670;28;20113;-85
2023/12/09 04:37:24;;;;;;;10.23;3.50;;;;;;;4.76;100.00;100813.09;5022668;28;20041;-84
2023/12/09 04:39:49;;;;;;;15.30;3.93;;;;;;;4.74;100.00;100825.97;5020271;28;20030;-85
2023/12/09 04:42:15;;;;;;;10.57;3.50;;;;;;;4.74;100.00;100819.97;5023763;28;20029;-85
2023/12/09 04:44:40;;;;;;;13.57;4.07;;;;;;;4.74;100.00;100819.97;5021871;28;20033;-85
2023/12/09 04:47:06;;;;;;;15.77;4.72;;;;;;;4.72;100.00;100819.97;5027232;28;20033;-85
2023/12/09 04:49:32;;;;;;;13.80;4.20;;;;;;;4.70;100.00;100809.66;5021442;28;20036;-85
2023/12/09 04:51:57;;;;;;;11.82;3.88;;;;;;;4.68;100.00;100803.66;5028006;28;20025;-85
2023/12/09 04:54:22;;;;;;;14.18;3.90;;;;;;;4.67;100.00;100799.34;5026271;28;20103;-85
2023/12/09 04:56:48;;;;;;;11.77;4.28;;;;;;;4.68;100.00;100793.34;5026615;28;20057;-85
2023/12/09 04:59:14;;;;;;;13.13;4.10;;;;;;;4.67;100.00;100796.78;5022749;28;20163;-85
2023/12/09 05:01:39;;;;;;;15.18;4.30;;;;;;;4.69;100.00;100787.34;5025327;28;20436;-85
2023/12/09 05:04:04;;;;;;;10.20;3.67;;;;;;;4.68;100.00;100775.31;5022323;28;20032;-85
2023/12/09 05:06:30;;;;;;;14.32;3.63;;;;;;;4.68;100.00;100780.47;5022774;28;20576;-85
2023/12/09 05:08:55;;;;;;;11.30;3.70;;;;;;;4.69;100.00;100787.34;5027004;28;20029;-85
2023/12/09 05:11:20;;;;;;;14.50;4.30;;;;;;;4.70;100.00;100781.31;5024863;28;20052;-85
2023/12/09 05:13:46;;;;;;;13.93;3.90;;;;;;;4.72;100.00;100781.31;5010869;28;20381;-85
2023/12/09 05:16:11;;;;;;;12.57;3.70;;;;;;;4.71;100.00;100775.31;5017779;28;20389;-84
2023/12/09 05:18:36;;;;;;;15.32;4.25;;;;;;;4.70;100.00;100777.88;5022676;28;20112;-84
2023/12/09 05:21:04;;;;;;;12.43;3.37;;;;;;;4.66;100.00;100774.44;5026888;28;20064;-85
2023/12/09 05:23:30;;;;;;;12.70;3.10;;;;;;;4.67;100.00;100778.75;5024394;28;20026;-85
2023/12/09 05:25:55;;;;;;;9.63;3.60;;;;;;;4.67;100.00;100781.31;5025070;28;20543;-85
2023/12/09 05:28:21;;;;;;;10.73;3.08;;;;;;;4.64;100.00;100778.75;5012101;28;20484;-85
2023/12/09 05:30:48;;;;;;;13.47;3.63;;;;;;;4.65;100.00;100777.03;5009409;28;20053;-86
2023/12/09 05:33:13;;;;;;;8.10;3.13;;;;;;;4.63;100.00;100771.88;5021163;28;20472;-85
2023/12/09 05:35:39;;;;;;;14.27;3.03;;;;;;;4.63;100.00;100777.03;5023090;28;20030;-85
2023/12/09 05:38:04;;;;;;;9.70;2.90;;;;;;;4.62;100.00;100771.91;5029461;28;20036;-85
2023/12/09 05:40:29;;;;;;;11.07;3.07;;;;;;;4.64;100.00;100770.19;5023202;28;20048;-85
2023/12/09 05:42:55;;;;;;;13.48;3.47;;;;;;;4.61;100.00;100771.03;5008606;28;20021;-85
2023/12/09 05:45:20;;;;;;;10.30;2.85;;;;;;;4.61;100.00;100767.59;5022947;28;20031;-86
2023/12/09 05:47:46;;;;;;;9.80;3.10;;;;;;;4.60;100.00;100771.91;5027518;28;21713;-86
2023/12/09 05:50:11;;;;;;;13.37;3.30;;;;;;;4.59;100.00;100767.63;5027769;28;20442;-85
2023/12/09 05:52:36;;;;;;;13.68;3.20;;;;;;;4.58;100.00;100763.31;5026819;28;20031;-85
2023/12/09 05:55:02;;;;;;;9.27;3.10;;;;;;;4.57;100.00;100769.34;5022830;28;20045;-85
2023/12/09 05:57:27;;;;;;;11.87;3.03;;;;;;;4.55;100.00;100774.47;5025107;28;20469;-85
2023/12/09 05:59:53;;;;;;;11.50;3.10;;;;;;;4.53;100.00;100765.03;5030660;28;20108;-85
2023/12/09 06:02:18;;;;;;;9.63;2.88;;;;;;;4.52;100.00;100766.78;4997788;28;20057;-85
2023/12/09 06:04:43;;;;;;;10.68;2.80;;;;;;;4.50;100.00;100762.47;5017910;28;20122;-85
2023/12/09 06:07:08;;;;;;;11.90;3.00;;;;;;;4.51;100.00;100769.34;5025628;28;20065;-86
2023/12/09 06:09:34;;;;;;;9.33;2.63;;;;;;;4.47;100.00;100759.88;5027513;28;20329;-85
2023/12/09 06:11:59;;;;;;;11.03;2.87;;;;;;;4.45;100.00;100759.91;5011591;28;20108;-84
2023/12/09 06:14:24;;;;;;;12.57;3.00;;;;;;;4.47;100.00;100749.59;5024600;28;20029;-85
2023/12/09 06:16:50;;;;;;;8.18;2.70;;;;;;;4.48;100.00;100741.88;5019600;28;20145;-86
2023/12/09 06:19:15;;;;;;;10.55;3.13;;;;;;;4.47;100.00;100736.69;5026861;28;20488;-86
2023/12/09 06:21:41;;;;;;;9.43;2.70;;;;;;;4.46;100.00;100729.84;5026011;28;20026;-85
2023/12/09 06:24:06;;;;;;;10.47;2.70;;;;;;;4.47;100.00;100732.44;5023858;28;20341;-85
2023/12/09 06:26:31;;;;;;;10.70;2.80;;;;;;;4.47;100.00;100729.84;5022129;28;20029;-86
2023/12/09 06:28:57;;;;;;;12.40;3.67;;;;;;;4.46;100.00;100727.25;5027295;28;20060;-85
2023/12/09 06:31:22;;;;;;;7.00;2.43;;;;;;;4.45;100.00;100717.81;5023131;28;20096;-85
2023/12/09 06:33:47;;;;;;;9.63;2.60;;;;;;;4.45;100.00;100715.25;5028354;28;20071;-86
2023/12/09 06:36:13;;;;;;;7.70;2.67;;;;;;;4.45;100.00;100699.78;5025464;28;20091;-85
2023/12/09 06:38:39;;;;;;;10.70;2.57;;;;;;;4.44;100.00;100695.53;5022286;28;20314;-85
2023/12/09 06:41:05;;;;;;;10.02;2.90;;;;;;;4.43;100.00;100698.97;5005875;28;20029;-85
2023/12/09 06:43:30;;;;;;;11.53;2.87;;;;;;;4.43;100.00;100696.38;5024091;28;20346;-85
2023/12/09 06:45:56;;;;;;;8.20;2.40;;;;;;;4.45;100.00;100689.47;5022654;28;20029;-85
2023/12/09 06:48:21;;;;;;;10.93;2.63;;;;;;;4.45;100.00;100684.31;5022636;28;20449;-85
2023/12/09 06:50:46;;;;;;;6.07;2.47;;;;;;;4.43;100.00;100673.19;5025457;28;20085;-85
2023/12/09 06:53:13;;;;;;;7.20;2.37;;;;;;;4.42;100.00;100679.22;5008402;28;20065;-85
2023/12/09 06:55:39;;;;;;;7.10;2.60;;;;;;;4.41;100.00;100678.34;5025022;28;20021;-86
2023/12/09 06:58:04;;;;;;;7.10;2.73;;;;;;;4.38;100.00;100671.50;5029211;28;20040;-85
2023/12/09 07:00:30;;;;;;;8.07;2.43;;;;;;;4.36;100.00;100668.06;5026132;28;20551;-85
2023/12/09 07:02:55;;;;;;;8.85;2.50;;;;;;;4.35;100.00;100663.75;5020259;28;20432;-85
2023/12/09 07:05:20;;;;;;;9.87;2.37;;;;;;;4.34;100.00;100645.75;5019483;28;20378;-86
2023/12/09 07:07:48;;;;;;;5.90;2.17;;;;;;;4.35;100.00;100632.00;5020565;28;20480;-86
2023/12/09 07:10:14;;;;;;;8.43;2.40;;;;;;;4.34;100.00;100628.56;5005890;28;20049;-86
2023/12/09 07:12:40;;;;;;;6.83;2.33;;;;;;;4.33;100.00;100613.13;5022202;28;20025;-87
2023/12/09 07:15:06;;;;;;;10.90;2.57;;;;;;;4.35;100.00;100603.69;5014538;28;20037;-86
2023/12/09 07:17:31;;;;;;;10.47;2.60;;;;;;;4.36;100.00;100595.94;5024460;28;20033;-86
2023/12/09 07:19:59;;;;;;;7.60;2.30;;;;;;;4.39;100.00;100582.19;5024022;28;20052;-86
2023/12/09 07:22:25;;;;;;;7.90;2.50;;;;;;;4.40;100.00;100591.63;5003060;28;20079;-86
2023/12/09 07:24:50;;;;;;;10.53;2.60;;;;;;;4.44;100.00;100590.75;5022382;28;20058;-86
2023/12/09 07:27:15;;;;;;;9.20;2.77;;;;;;;4.46;100.00;100589.03;5016549;28;20427;-86
2023/12/09 07:29:41;;;;;;;7.43;2.50;;;;;;;4.51;100.00;100601.88;5023315;28;20029;-86
2023/12/09 07:32:06;;;;;;;8.90;2.70;;;;;;;4.55;100.00;100598.44;5027663;28;20104;-86
2023/12/09 07:34:31;;;;;;;7.00;2.57;;;;;;;4.56;100.00;100595.84;5028410;28;20030;-86
2023/12/09 07:36:57;;;;;;;9.37;2.80;;;;;;;4.60;100.00;100600.97;5018173;28;20074;-86
2023/12/09 07:39:23;;;;;;;8.97;2.60;;;;;;;4.60;100.00;100590.69;5026177;28;20468;-86
2023/12/09 07:41:50;;;;;;;9.10;2.50;;;;;;;4.63;100.00;100599.25;5028342;28;20026;-86
2023/12/09 07:44:20;;;;;;;9.60;2.77;;;;;;;4.68;100.00;100599.25;5005365;28;20127;-86
2023/12/09 07:46:46;;;;;;;9.67;2.50;;;;;;;4.73;100.00;100586.31;5020367;28;20040;-86
2023/12/09 07:49:12;;;;;;;8.63;2.57;;;;;;;4.71;100.00;100579.44;5024582;28;20029;-86
2023/12/09 07:51:37;;;;;;;7.70;2.30;;;;;;;4.74;100.00;100578.56;5022777;28;20036;-87
2023/12/09 07:54:03;;;;;;;10.87;2.53;;;;;;;4.76;100.00;100576.84;5021968;28;20021;-86
2023/12/09 07:56:28;;;;;;;14.10;3.03;;;;;;;4.80;100.00;100563.09;5022820;28;20047;-86
2023/12/09 07:58:53;;;;;;;8.13;2.30;;;;;;;4.82;100.00;100548.47;5019058;28;20029;-86
2023/12/09 08:01:19;;;;;;;8.17;2.60;;;;;;;4.84;100.00;100556.19;5022189;28;20048;-86
2023/12/09 08:03:45;;;;;;;7.40;2.50;;;;;;;4.86;100.00;100557.03;5021431;28;20246;-86
2023/12/09 08:06:11;;;;;;;11.70;2.47;;;;;;;4.88;100.00;100542.41;5019084;28;20054;-86
2023/12/09 08:08:37;;;;;;;12.55;2.85;;;;;;;4.90;100.00;100545.84;5015906;28;20473;-86
2023/12/09 08:11:03;;;;;;;12.47;2.70;;;;;;;4.92;100.00;100538.06;5027725;28;20029;-87
2023/12/09 08:13:28;;;;;;;7.83;2.20;;;;;;;4.96;100.00;100538.03;5011499;28;20391;-86
2023/12/09 08:15:54;;;;;;;8.60;2.23;;;;;;;4.97;100.00;100536.31;5021685;28;20450;-86
2023/12/09 08:18:19;;;;;;;9.57;2.22;;;;;;;4.97;100.00;100532.00;5015786;28;20049;-86
2023/12/09 08:20:44;;;;;;;10.93;2.30;;;;;;;5.00;100.00;100534.56;5021843;28;20021;-86
2023/12/09 08:23:10;;;;;;;7.85;2.10;;;;;;;5.03;100.00;100538.88;5022394;28;20037;-87
2023/12/09 08:25:35;;;;;;;6.80;1.88;;;;;;;5.07;100.00;100544.84;5019024;28;20416;-86
2023/12/09 08:28:00;;;;;;;11.27;2.30;;;;;;;5.07;100.00;100539.69;5014398;28;20074;-86
2023/12/09 08:30:26;;;;;;;7.35;2.13;;;;;;;5.08;100.00;100541.41;5019765;28;20033;-87
2023/12/09 08:32:51;;;;;;;9.15;1.90;;;;;;;5.09;100.00;100543.13;5020002;28;20496;-86
2023/12/09 08:35:16;;;;;;;7.55;2.20;;;;;;;5.09;100.00;100546.53;5021242;28;20033;-87
2023/12/09 08:37:42;;;;;;;5.22;1.88;;;;;;;5.12;100.00;100543.09;5012382;28;20026;-87
2023/12/09 08:40:12;;;;;;;7.38;2.38;;;;;;;5.13;100.00;100526.72;5022312;28;20029;-86
2023/12/09 08:42:39;;;;;;;9.00;2.60;;;;;;;5.14;100.00;100520.72;5023303;28;20140;-86
2023/12/09 08:45:05;;;;;;;6.18;1.83;;;;;;;5.15;100.00;100517.25;5014578;28;20037;-86
2023/12/09 08:47:30;;;;;;;9.43;2.30;;;;;;;5.19;100.00;100518.97;5015322;28;20076;-87
2023/12/09 08:49:56;;;;;;;4.88;2.00;;;;;;;5.24;100.00;100517.19;5014552;28;20029;-87
2023/12/09 08:52:21;;;;;;;5.28;1.92;;;;;;;5.27;100.00;100514.59;5016212;28;20448;-86
2023/12/09 08:54:47;;;;;;;8.00;2.07;;;;;;;5.34;100.00;100519.69;5014767;28;20473;-87
2023/12/09 08:57:12;;;;;;;5.90;1.73;;;;;;;5.35;100.00;100511.06;5010566;28;20030;-87
2023/12/09 08:59:37;;;;;;;6.40;1.70;;;;;;;5.37;100.00;100496.44;5020502;28;20087;-87
2023/12/09 09:02:03;;;;;;;10.02;1.90;;;;;;;5.41;100.00;100508.44;5022040;28;20048;-86
2023/12/09 09:04:28;;;;;;;9.63;1.75;;;;;;;5.42;100.00;100500.69;5018135;28;20053;-87
2023/12/09 09:06:53;;;;;;;5.63;1.65;;;;;;;5.46;100.00;100501.53;5016471;28;20129;-87
2023/12/09 09:09:19;;;;;;;9.02;2.13;;;;;;;5.49;100.00;100486.00;5018412;28;20034;-87
2023/12/09 09:11:44;;;;;;;6.85;1.60;;;;;;;5.53;100.00;100486.84;5020005;28;20057;-87
2023/12/09 09:14:10;;;;;;;8.52;1.67;;;;;;;5.57;100.00;100479.03;5023245;28;20105;-87
2023/12/09 09:16:35;;;;;;;6.60;1.65;;;;;;;5.59;100.00;100466.97;5026029;28;20021;-85
2023/12/09 09:19:00;;;;;;;8.18;1.77;;;;;;;5.60;100.00;100448.03;5001653;28;20117;-87
2023/12/09 09:21:26;;;;;;;6.15;1.98;;;;;;;5.62;100.00;100433.41;5025568;28;20044;-86
2023/12/09 09:23:51;;;;;;;6.68;1.70;;;;;;;5.66;100.00;100429.03;5010041;28;20040;-87
2023/12/09 09:26:17;;;;;;;5.55;1.60;;;;;;;5.67;100.00;100415.28;5019524;28;20037;-87
2023/12/09 09:28:43;;;;;;;6.43;2.10;;;;;;;5.70;100.00;100406.63;5025103;28;20467;-86
2023/12/09 09:31:11;;;;;;;9.23;2.00;;;;;;;5.72;100.00;100389.41;4999622;28;20499;-87
2023/12/09 09:33:36;;;;;;;7.85;2.63;;;;;;;5.74;100.00;100390.22;5011238;28;20038;-86
2023/12/09 09:36:01;;;;;;;7.20;2.13;;;;;;;5.77;100.00;100387.63;5017640;28;20057;-86
2023/12/09 09:38:27;;;;;;;5.95;1.75;;;;;;;5.77;100.00;100385.88;5030235;28;20030;-87
2023/12/09 09:40:52;;;;;;;9.68;2.28;;;;;;;5.80;100.00;100387.59;5023368;28;20034;-87
2023/12/09 09:43:24;;;;;;;6.28;1.95;;;;;;;5.81;100.00;100394.41;5021150;28;20022;-87
2023/12/09 09:45:52;;;;;;;5.88;1.83;;;;;;;5.83;100.00;100392.69;5001598;28;20030;-86
2023/12/09 09:48:22;;;;;;;7.85;2.17;;;;;;;5.86;100.00;100381.47;5023077;28;20369;-87
2023/12/09 09:50:52;;;;;;;6.45;2.42;;;;;;;5.88;100.00;100366.81;5022618;28;20061;-86
2023/12/09 09:53:31;;;;;;;6.38;1.73;;;;;;;5.91;100.00;100361.59;5019284;28;20085;-86
2023/12/09 09:55:58;;;;;;;9.25;1.95;;;;;;;5.92;100.00;100359.00;5004578;28;20042;-86
2023/12/09 09:58:23;;;;;;;6.30;1.88;;;;;;;5.96;100.00;100357.22;4999102;28;20384;-90
2023/12/09 10:00:50;;;;;;;9.20;2.38;;;;;;;5.99;100.00;100357.19;4998616;28;20034;-89
2023/12/09 10:03:15;;;;;;;7.38;1.98;;;;;;;6.01;100.00;100349.44;5026109;28;20136;-88
2023/12/09 10:05:41;;;;;;;7.88;1.83;;;;;;;6.05;100.00;100341.66;5028041;28;20463;-87
2023/12/09 10:08:06;;;;;;;5.18;1.73;;;;;;;6.07;100.00;100339.88;5022573;28;20412;-87
2023/12/09 10:10:33;;;;;;;5.95;1.85;;;;;;;6.11;100.00;100325.19;5013109;28;20018;-87
2023/12/09 10:12:59;;;;;;;6.10;1.50;;;;;;;6.14;100.00;100309.66;5019735;28;20033;-88
2023/12/09 10:15:24;;;;;;;5.07;1.55;;;;;;;6.18;100.00;100294.97;5024890;28;20033;-87
2023/12/09 10:17:49;;;;;;;7.70;1.70;;;;;;;6.21;100.00;100289.75;5028575;28;20029;-88
2023/12/09 10:20:15;;;;;;;5.10;1.50;;;;;;;6.24;100.00;100266.41;5032107;28;20021;-87
2023/12/09 10:22:41;;;;;;;6.57;1.48;;;;;;;6.28;100.00;100259.50;5015678;28;20033;-88
2023/12/09 10:25:07;;;;;;;7.55;1.85;;;;;;;6.28;100.00;100254.31;5009565;28;20370;-88
2023/12/09 10:27:33;;;;;;;5.72;1.60;;;;;;;6.34;100.00;100247.31;5022456;28;20381;-86
2023/12/09 10:29:59;;;;;;;6.22;1.40;;;;;;;6.36;100.00;100229.19;5031869;28;20028;-88
2023/12/09 10:32:28;;;;;;;8.65;1.55;;;;;;;6.40;100.00;100225.69;5024549;28;20025;-89
2023/12/09 10:34:53;;;;;;;7.03;1.50;;;;;;;6.39;100.00;100221.38;5023390;28;20096;-88
2023/12/09 10:37:19;;;;;;;6.20;1.33;;;;;;;6.44;100.00;100219.59;5020414;28;20496;-86
2023/12/09 10:39:45;;;;;;;8.13;1.60;;;;;;;6.46;100.00;100204.03;5026339;28;20037;-86
2023/12/09 10:42:11;;;;;;;5.00;1.30;;;;;;;6.47;100.00;100188.53;5032614;28;20037;-87
2023/12/09 10:44:37;;;;;;;4.88;1.75;;;;;;;6.49;100.00;100196.22;5027550;28;20031;-91
2023/12/09 10:47:05;;;;;;;5.35;1.33;;;;;;;6.50;100.00;100196.19;5030587;28;20056;-88
2023/12/09 10:49:31;;;;;;;4.15;1.30;;;;;;;6.51;100.00;100200.47;5005589;28;20025;-85
2023/12/09 10:51:57;;;;;;;9.10;1.70;;;;;;;6.56;100.00;100178.88;5018762;28;20032;-88
2023/12/09 10:54:22;;;;;;;6.72;1.42;;;;;;;6.55;100.00;100164.25;5026933;28;20327;-87
2023/12/09 10:56:48;;;;;;;8.88;1.83;;;;;;;6.58;100.00;100151.25;5012341;28;20032;-88
2023/12/09 10:59:17;;;;;;;9.13;1.50;;;;;;;6.56;100.00;100135.81;5017873;28;20124;-89
2023/12/09 11:01:44;;;;;;;5.38;1.20;;;;;;;6.61;100.00;100133.94;5032289;28;20029;-87
2023/12/09 11:04:09;;;;;;;4.72;1.25;;;;;;;6.59;100.00;100115.03;5006631;28;20033;-88
2023/12/09 11:06:37;;;;;;;6.70;1.55;;;;;;;6.59;100.00;100103.88;5029744;28;20056;-89
2023/12/09 11:09:05;;;;;;;6.43;1.45;;;;;;;6.58;100.00;100113.34;5025159;28;20021;-90
2023/12/09 11:11:31;;;;;;;4.60;1.20;;;;;;;6.57;100.00;100105.63;5023659;28;20481;-91
2023/12/09 11:13:58;;;;;;;7.32;1.40;;;;;;;6.60;100.00;100102.97;5006098;28;20029;-86